createdAt,value
2023-05-05T00:00:20.934Z,18.20
2023-05-05T00:02:49.068Z,18.20
2023-05-05T00:05:17.281Z,18.20
2023-05-05T00:07:45.354Z,18.20
2023-05-05T00:10:14.836Z,18.20
2023-05-05T00:12:42.914Z,18.20
2023-05-05T00:15:11.189Z,18.20
2023-05-05T00:17:39.390Z,18.20
2023-05-05T00:20:10.080Z,18.10
2023-05-05T00:22:38.227Z,18.20
2023-05-05T00:25:07.173Z,18.20
2023-05-05T00:27:37.934Z,18.20
2023-05-05T00:30:08.682Z,18.20
2023-05-05T00:32:36.904Z,18.20
2023-05-05T00:35:05.498Z,18.20
2023-05-05T00:37:33.607Z,18.10
2023-05-05T00:40:01.752Z,18.30
2023-05-05T00:42:33.890Z,18.20
2023-05-05T00:45:04.207Z,18.20
2023-05-05T00:47:32.321Z,18.20
2023-05-05T00:50:00.385Z,18.20
2023-05-05T00:52:28.454Z,18.20
2023-05-05T00:54:56.521Z,18.20
2023-05-05T00:57:24.741Z,18.20
2023-05-05T00:59:52.805Z,18.20
2023-05-05T01:02:22.790Z,18.20
2023-05-05T01:04:50.873Z,18.20
2023-05-05T01:07:23.381Z,18.30
2023-05-05T01:10:10.990Z,18.30
2023-05-05T01:12:47.613Z,18.20
2023-05-05T01:15:18.682Z,18.20
2023-05-05T01:17:52.258Z,18.10
2023-05-05T01:20:22.710Z,18.10
2023-05-05T01:22:53.776Z,18.10
2023-05-05T01:26:03.461Z,18.20
2023-05-05T01:28:38.736Z,18.20
2023-05-05T01:31:41.674Z,18.20
2023-05-05T01:34:10.061Z,18.20
2023-05-05T01:36:39.399Z,18.30
2023-05-05T01:39:07.907Z,18.20
2023-05-05T01:41:39.759Z,18.20
2023-05-05T01:44:07.860Z,18.10
2023-05-05T01:46:36.227Z,18.10
2023-05-05T01:49:06.036Z,18.00
2023-05-05T01:51:34.172Z,18.00
2023-05-05T01:54:04.982Z,17.90
2023-05-05T01:56:33.138Z,18.00
2023-05-05T01:59:01.741Z,18.00
2023-05-05T02:01:29.861Z,18.00
2023-05-05T02:03:57.959Z,18.00
2023-05-05T02:06:28.208Z,18.00
2023-05-05T02:08:58.389Z,18.10
2023-05-05T02:11:26.812Z,18.10
2023-05-05T02:13:54.992Z,18.10
2023-05-05T02:16:23.696Z,18.10
2023-05-05T02:18:51.872Z,18.00
2023-05-05T02:21:20.670Z,18.00
2023-05-05T02:23:52.036Z,18.00
2023-05-05T02:26:21.128Z,18.00
2023-05-05T02:28:50.163Z,18.00
2023-05-05T02:31:18.436Z,18.10
2023-05-05T02:33:46.514Z,18.00
2023-05-05T02:36:17.656Z,18.10
2023-05-05T02:38:46.160Z,18.10
2023-05-05T02:41:18.126Z,18.10
2023-05-05T02:43:46.198Z,18.10
2023-05-05T02:46:14.468Z,18.10
2023-05-05T02:48:42.571Z,18.00
2023-05-05T02:51:10.651Z,18.00
2023-05-05T02:53:38.701Z,18.00
2023-05-05T02:56:11.192Z,18.00
2023-05-05T02:58:43.913Z,18.00
2023-05-05T03:01:16.086Z,18.00
2023-05-05T03:03:47.064Z,18.10
2023-05-05T03:06:16.370Z,18.10
2023-05-05T03:08:47.065Z,18.10
2023-05-05T03:11:17.470Z,18.10
2023-05-05T03:13:46.989Z,18.00
2023-05-05T03:16:15.124Z,18.00
2023-05-05T03:18:43.820Z,18.00
2023-05-05T03:21:11.930Z,18.00
2023-05-05T03:23:39.990Z,18.00
2023-05-05T03:26:08.106Z,18.00
2023-05-05T03:28:36.210Z,17.90
2023-05-05T03:31:05.861Z,18.00
2023-05-05T03:33:34.020Z,18.00
2023-05-05T03:36:02.065Z,18.00
2023-05-05T03:38:30.324Z,18.10
2023-05-05T03:40:58.449Z,18.00
2023-05-05T03:43:26.480Z,18.00
2023-05-05T03:45:54.561Z,17.90
2023-05-05T03:48:24.034Z,17.90
2023-05-05T03:50:52.084Z,17.90
2023-05-05T03:53:20.205Z,17.80
2023-05-05T03:55:48.375Z,17.80
2023-05-05T03:58:16.561Z,17.80
2023-05-05T04:00:44.708Z,17.90
2023-05-05T04:03:12.826Z,17.90
2023-05-05T04:05:42.376Z,17.90
2023-05-05T04:08:10.520Z,17.90
2023-05-05T04:10:38.562Z,17.90
2023-05-05T04:13:06.667Z,18.00
2023-05-05T04:15:34.866Z,18.00
2023-05-05T04:18:03.046Z,17.90
2023-05-05T04:20:31.340Z,17.90
2023-05-05T04:23:00.790Z,17.80
2023-05-05T04:25:29.343Z,17.90
2023-05-05T04:27:57.392Z,17.90
2023-05-05T04:30:25.473Z,18.00
2023-05-05T04:32:53.656Z,18.00
2023-05-05T04:35:22.127Z,17.90
2023-05-05T04:37:50.207Z,18.00
2023-05-05T04:40:19.656Z,18.00
2023-05-05T04:42:47.780Z,18.10
2023-05-05T04:45:17.305Z,18.00
2023-05-05T04:47:45.390Z,17.90
2023-05-05T04:50:13.846Z,17.90
2023-05-05T04:52:41.904Z,17.90
2023-05-05T04:55:10.705Z,17.90
2023-05-05T04:57:40.178Z,17.90
2023-05-05T05:00:10.871Z,17.90
2023-05-05T05:02:39.120Z,18.00
2023-05-05T05:05:08.249Z,18.00
2023-05-05T05:07:36.285Z,18.00
2023-05-05T05:10:04.504Z,18.00
2023-05-05T05:12:32.635Z,18.00
2023-05-05T05:15:02.098Z,18.00
2023-05-05T05:17:31.057Z,17.90
2023-05-05T05:20:01.653Z,17.90
2023-05-05T05:22:29.773Z,18.00
2023-05-05T05:24:57.845Z,18.00
2023-05-05T05:27:26.070Z,18.00
2023-05-05T05:29:54.130Z,18.10
2023-05-05T05:32:23.568Z,18.10
2023-05-05T05:34:51.669Z,18.10
2023-05-05T05:37:19.740Z,18.10
2023-05-05T05:39:52.540Z,18.20
2023-05-05T05:42:20.873Z,18.20
2023-05-05T05:44:48.933Z,18.20
2023-05-05T05:47:16.989Z,18.20
2023-05-05T05:49:46.411Z,18.20
2023-05-05T05:52:14.447Z,18.10
2023-05-05T05:54:42.463Z,18.10
2023-05-05T05:57:10.494Z,18.20
2023-05-05T05:59:38.580Z,18.30
2023-05-05T06:02:06.660Z,18.40
2023-05-05T06:04:34.751Z,18.40
2023-05-05T06:07:04.327Z,18.50
2023-05-05T06:09:32.355Z,18.50
2023-05-05T06:12:00.551Z,18.60
2023-05-05T06:14:28.628Z,18.60
2023-05-05T06:16:56.761Z,18.70
2023-05-05T06:19:24.877Z,18.70
2023-05-05T06:21:53.067Z,18.70
2023-05-05T06:24:22.616Z,18.70
2023-05-05T06:26:56.928Z,18.80
2023-05-05T06:29:25.051Z,18.80
2023-05-05T06:31:53.200Z,18.90
2023-05-05T06:34:21.317Z,18.90
2023-05-05T06:36:49.501Z,18.90
2023-05-05T06:39:17.700Z,19.00
2023-05-05T06:41:47.149Z,19.00
2023-05-05T06:44:15.249Z,19.10
2023-05-05T06:46:43.780Z,19.10
2023-05-05T06:49:12.329Z,19.10
2023-05-05T06:51:42.640Z,19.10
2023-05-05T06:54:11.035Z,19.10
2023-05-05T06:56:39.087Z,19.10
2023-05-05T06:59:08.490Z,19.20
2023-05-05T07:01:36.576Z,19.20
2023-05-05T07:04:04.728Z,19.20
2023-05-05T07:06:32.897Z,19.20
2023-05-05T07:09:00.955Z,19.20
2023-05-05T07:11:29.033Z,19.30
2023-05-05T07:13:57.093Z,19.30
2023-05-05T07:16:27.515Z,19.30
2023-05-05T07:18:55.652Z,19.30
2023-05-05T07:21:23.866Z,19.30
2023-05-05T07:23:52.027Z,19.30
2023-05-05T07:26:20.128Z,19.30
2023-05-05T07:28:48.232Z,19.30
2023-05-05T07:31:16.400Z,19.40
2023-05-05T07:33:45.975Z,19.40
2023-05-05T07:36:14.090Z,19.40
2023-05-05T07:38:42.247Z,19.50
2023-05-05T07:41:11.679Z,19.50
2023-05-05T07:43:42.279Z,19.50
2023-05-05T07:46:11.731Z,19.50
2023-05-05T07:48:41.621Z,19.50
2023-05-05T07:51:11.256Z,19.50
2023-05-05T07:53:39.365Z,19.40
2023-05-05T07:56:08.833Z,19.40
2023-05-05T07:58:37.055Z,19.50
2023-05-05T08:01:06.579Z,19.40
2023-05-05T08:03:34.924Z,19.50
2023-05-05T08:06:07.688Z,19.50
2023-05-05T08:08:37.363Z,19.40
2023-05-05T08:11:06.609Z,19.50
2023-05-05T08:13:34.857Z,19.60
2023-05-05T08:16:03.094Z,19.60
2023-05-05T08:18:31.189Z,19.60
2023-05-05T08:20:59.259Z,19.60
2023-05-05T08:23:27.327Z,19.60
2023-05-05T08:25:56.828Z,19.60
2023-05-05T08:28:24.905Z,19.60
2023-05-05T08:30:53.095Z,19.60
2023-05-05T08:33:21.154Z,19.50
2023-05-05T08:35:49.749Z,19.60
2023-05-05T08:38:19.072Z,19.60
2023-05-05T08:40:47.350Z,19.60
2023-05-05T08:43:20.274Z,19.60
2023-05-05T08:45:48.269Z,19.60
2023-05-05T08:48:16.258Z,19.70
2023-05-05T08:50:44.296Z,19.70
2023-05-05T08:53:12.902Z,19.60
2023-05-05T08:55:45.236Z,19.60
2023-05-05T08:58:13.289Z,19.60
2023-05-05T09:00:43.782Z,19.60
2023-05-05T09:03:12.192Z,19.60
2023-05-05T09:05:40.348Z,19.60
2023-05-05T09:08:09.659Z,19.70
2023-05-05T09:10:37.822Z,19.60
2023-05-05T09:13:05.973Z,19.70
2023-05-05T09:15:34.135Z,19.70
2023-05-05T09:18:05.271Z,19.70
2023-05-05T09:20:34.892Z,19.60
2023-05-05T09:23:08.608Z,19.60
2023-05-05T09:25:36.828Z,19.60
2023-05-05T09:28:14.889Z,19.60
2023-05-05T09:30:43.672Z,19.60
2023-05-05T09:33:13.223Z,19.70
2023-05-05T09:35:51.361Z,19.60
2023-05-05T09:38:19.488Z,19.70
2023-05-05T09:40:48.525Z,19.70
2023-05-05T09:43:16.834Z,19.80
2023-05-05T09:45:44.920Z,19.80
2023-05-05T09:48:27.465Z,19.80
2023-05-05T09:50:55.764Z,19.80
2023-05-05T09:53:27.510Z,19.80
2023-05-05T09:55:59.696Z,19.70
2023-05-05T09:58:28.287Z,19.70
2023-05-05T10:00:56.991Z,19.70
2023-05-05T10:03:26.413Z,19.70
2023-05-05T10:05:55.782Z,19.70
2023-05-05T10:08:24.908Z,19.70
2023-05-05T10:10:53.849Z,19.70
2023-05-05T10:13:22.900Z,19.80
2023-05-05T10:15:52.355Z,19.80
2023-05-05T10:18:30.281Z,19.80
2023-05-05T10:20:59.247Z,19.90
2023-05-05T10:23:30.092Z,19.90
2023-05-05T10:26:02.439Z,19.80
2023-05-05T10:28:35.175Z,19.70
2023-05-05T10:31:12.906Z,19.80
2023-05-05T10:34:01.785Z,19.80
2023-05-05T10:36:31.798Z,19.80
2023-05-05T10:38:59.973Z,19.80
2023-05-05T10:41:28.029Z,19.90
2023-05-05T10:43:57.202Z,19.80
2023-05-05T10:46:26.179Z,20.00
2023-05-05T10:49:00.541Z,20.00
2023-05-05T10:51:39.916Z,20.00
2023-05-05T10:54:12.533Z,20.00
2023-05-05T10:56:41.280Z,19.90
2023-05-05T10:59:39.147Z,19.90
2023-05-05T11:02:19.940Z,19.90
2023-05-05T11:05:08.278Z,19.90
2023-05-05T11:07:36.440Z,19.90
2023-05-05T11:10:04.856Z,19.90
2023-05-05T11:12:33.473Z,19.90
2023-05-05T11:15:40.995Z,20.00
2023-05-05T11:18:09.112Z,20.00
2023-05-05T11:21:19.879Z,20.00
2023-05-05T11:23:50.270Z,20.00
2023-05-05T11:26:19.126Z,20.00
2023-05-05T11:29:01.158Z,20.00
2023-05-05T11:31:30.623Z,19.90
2023-05-05T11:34:27.991Z,19.90
2023-05-05T11:37:01.761Z,19.90
2023-05-05T11:39:42.079Z,19.90
2023-05-05T11:42:20.324Z,20.00
2023-05-05T11:44:48.383Z,20.10
2023-05-05T11:47:32.238Z,20.10
2023-05-05T11:50:15.693Z,20.10
2023-05-05T11:52:43.737Z,20.10
2023-05-05T11:55:13.161Z,20.00
2023-05-05T11:57:41.209Z,20.00
2023-05-05T12:00:10.314Z,20.00
2023-05-05T12:02:38.705Z,20.00
2023-05-05T12:05:08.095Z,20.00
2023-05-05T12:07:36.128Z,20.00
2023-05-05T12:10:04.372Z,20.00
2023-05-05T12:12:37.557Z,20.00
2023-05-05T12:15:07.996Z,20.00
2023-05-05T12:17:38.824Z,20.10
2023-05-05T12:20:08.981Z,20.10
2023-05-05T12:22:37.240Z,20.20
2023-05-05T12:25:05.883Z,20.20
2023-05-05T12:27:38.759Z,20.10
2023-05-05T12:30:15.277Z,20.10
2023-05-05T12:32:43.703Z,20.10
2023-05-05T12:35:12.022Z,20.10
2023-05-05T12:37:40.158Z,20.10
2023-05-05T12:40:09.875Z,20.10
2023-05-05T12:42:43.568Z,20.10
2023-05-05T12:45:18.129Z,20.10
2023-05-05T12:47:46.313Z,20.20
2023-05-05T12:50:14.537Z,20.30
2023-05-05T12:52:44.023Z,20.30
2023-05-05T12:55:12.346Z,20.20
2023-05-05T12:57:40.479Z,20.20
2023-05-05T13:00:17.708Z,20.20
2023-05-05T13:02:45.787Z,20.20
2023-05-05T13:05:13.857Z,20.20
2023-05-05T13:07:51.215Z,20.20
2023-05-05T13:10:19.225Z,20.20
2023-05-05T13:12:47.668Z,20.10
2023-05-05T13:15:17.369Z,20.20
2023-05-05T13:17:45.474Z,20.30
2023-05-05T13:20:14.128Z,20.30
2023-05-05T13:22:42.163Z,20.20
2023-05-05T13:25:10.529Z,20.20
2023-05-05T13:27:38.865Z,20.20
2023-05-05T13:30:08.273Z,20.20
2023-05-05T13:32:37.725Z,20.10
2023-05-05T13:35:06.547Z,20.10
2023-05-05T13:37:34.645Z,20.10
2023-05-05T13:40:03.422Z,20.10
2023-05-05T13:42:31.585Z,20.20
2023-05-05T13:44:59.644Z,20.20
2023-05-05T13:47:27.753Z,20.20
2023-05-05T13:49:57.262Z,20.20
2023-05-05T13:52:25.339Z,20.20
2023-05-05T13:54:53.543Z,20.10
2023-05-05T13:57:24.431Z,20.10
2023-05-05T13:59:52.445Z,20.00
2023-05-05T14:02:20.568Z,20.00
2023-05-05T14:04:48.624Z,20.00
2023-05-05T14:07:18.098Z,20.00
2023-05-05T14:09:46.131Z,20.00
2023-05-05T14:12:14.321Z,20.00
2023-05-05T14:14:42.399Z,20.00
2023-05-05T14:17:10.471Z,20.00
2023-05-05T14:19:38.513Z,20.00
2023-05-05T14:22:06.663Z,20.00
2023-05-05T14:24:36.070Z,20.10
2023-05-05T14:27:04.450Z,20.00
2023-05-05T14:29:32.518Z,20.00
2023-05-05T14:32:00.866Z,20.00
2023-05-05T14:34:29.010Z,20.00
2023-05-05T14:36:57.213Z,19.90
2023-05-05T14:39:25.292Z,19.90
2023-05-05T14:41:54.709Z,19.90
2023-05-05T14:44:22.772Z,19.90
2023-05-05T14:46:51.246Z,19.90
2023-05-05T14:49:19.432Z,19.90
2023-05-05T14:51:47.505Z,20.00
2023-05-05T14:54:27.356Z,20.00
2023-05-05T14:56:58.527Z,19.90
2023-05-05T14:59:27.590Z,19.90
2023-05-05T15:01:55.705Z,19.90
2023-05-05T15:04:23.850Z,19.90
2023-05-05T15:06:51.903Z,19.90
2023-05-05T15:09:20.461Z,19.90
2023-05-05T15:11:48.501Z,19.90
2023-05-05T15:14:17.936Z,19.90
2023-05-05T15:16:46.879Z,19.90
2023-05-05T15:19:14.994Z,19.80
2023-05-05T15:21:43.094Z,19.90
2023-05-05T15:24:11.150Z,19.90
2023-05-05T15:26:39.231Z,19.90
2023-05-05T15:29:07.326Z,19.80
2023-05-05T15:31:36.909Z,19.80
2023-05-05T15:34:05.361Z,19.80
2023-05-05T15:36:33.436Z,19.80
2023-05-05T15:39:01.610Z,19.70
2023-05-05T15:41:30.328Z,19.70
2023-05-05T15:43:58.375Z,19.80
2023-05-05T15:46:26.514Z,19.80
2023-05-05T15:48:56.017Z,19.80
2023-05-05T15:51:24.106Z,19.80
2023-05-05T15:53:53.342Z,19.80
2023-05-05T15:56:21.426Z,19.70
2023-05-05T15:58:49.494Z,19.70
2023-05-05T16:01:17.602Z,19.70
2023-05-05T16:03:45.738Z,19.60
2023-05-05T16:06:15.296Z,19.60
2023-05-05T16:08:43.441Z,19.60
2023-05-05T16:11:11.698Z,19.60
2023-05-05T16:13:39.885Z,19.70
2023-05-05T16:16:08.229Z,19.60
2023-05-05T16:18:36.339Z,19.60
2023-05-05T16:21:04.630Z,19.70
2023-05-05T16:23:34.116Z,19.70
2023-05-05T16:26:05.854Z,19.60
2023-05-05T16:28:35.006Z,19.60
2023-05-05T16:31:03.527Z,19.60
2023-05-05T16:33:31.960Z,19.60
2023-05-05T16:36:00.254Z,19.60
2023-05-05T16:38:28.970Z,19.60
2023-05-05T16:40:59.131Z,19.60
2023-05-05T16:43:27.769Z,19.60
2023-05-05T16:45:56.886Z,19.60
2023-05-05T16:48:25.606Z,19.60
2023-05-05T16:50:54.297Z,19.60
2023-05-05T16:53:22.509Z,19.60
2023-05-05T16:55:51.416Z,19.60
2023-05-05T16:58:21.194Z,19.60
2023-05-05T17:00:49.403Z,19.60
2023-05-05T17:03:17.627Z,19.50
2023-05-05T17:05:47.206Z,19.50
2023-05-05T17:08:20.042Z,19.60
2023-05-05T17:10:48.209Z,19.60
2023-05-05T17:13:16.415Z,19.60
2023-05-05T17:15:46.054Z,19.50
2023-05-05T17:18:14.208Z,19.60
2023-05-05T17:20:42.861Z,19.60
2023-05-05T17:23:11.040Z,19.60
2023-05-05T17:25:39.208Z,19.60
2023-05-05T17:28:07.559Z,19.50
2023-05-05T17:30:37.576Z,19.50
2023-05-05T17:33:07.715Z,19.50
2023-05-05T17:35:35.976Z,19.50
2023-05-05T17:38:04.122Z,19.50
2023-05-05T17:40:32.288Z,19.60
2023-05-05T17:43:00.610Z,19.60
2023-05-05T17:45:28.758Z,19.60
2023-05-05T17:47:56.864Z,19.60
2023-05-05T17:50:26.347Z,19.60
2023-05-05T17:52:54.523Z,19.60
2023-05-05T17:55:22.642Z,19.50
2023-05-05T17:57:50.767Z,19.50
2023-05-05T18:00:19.704Z,19.40
2023-05-05T18:02:47.864Z,19.50
2023-05-05T18:05:16.248Z,19.50
2023-05-05T18:07:45.725Z,19.50
2023-05-05T18:10:13.855Z,19.40
2023-05-05T18:12:41.987Z,19.40
2023-05-05T18:15:11.312Z,19.30
2023-05-05T18:17:39.589Z,19.40
2023-05-05T18:20:08.872Z,19.40
2023-05-05T18:22:37.215Z,19.50
2023-05-05T18:25:08.339Z,19.50
2023-05-05T18:27:37.363Z,19.50
2023-05-05T18:30:06.390Z,19.50
2023-05-05T18:32:34.994Z,19.40
2023-05-05T18:35:03.209Z,19.40
2023-05-05T18:37:31.274Z,19.50
2023-05-05T18:39:59.737Z,19.50
2023-05-05T18:42:29.186Z,19.40
2023-05-05T18:44:57.288Z,19.40
2023-05-05T18:47:26.291Z,19.40
2023-05-05T18:49:54.465Z,19.50
2023-05-05T18:52:22.958Z,19.40
2023-05-05T18:54:54.191Z,19.40
2023-05-05T18:57:22.261Z,19.40
2023-05-05T18:59:51.791Z,19.50
2023-05-05T19:02:19.991Z,19.40
2023-05-05T19:04:48.110Z,19.40
2023-05-05T19:07:27.526Z,19.40
2023-05-05T19:10:02.418Z,19.40
2023-05-05T19:12:30.547Z,19.50
2023-05-05T19:15:00.037Z,19.40
2023-05-05T19:17:28.159Z,19.40
2023-05-05T19:19:56.332Z,19.40
2023-05-05T19:22:24.420Z,19.40
2023-05-05T19:24:52.462Z,19.40
2023-05-05T19:27:20.560Z,19.40
2023-05-05T19:29:52.221Z,19.40
2023-05-05T19:32:22.267Z,19.40
2023-05-05T19:34:54.188Z,19.40
2023-05-05T19:37:22.467Z,19.40
2023-05-05T19:39:51.658Z,19.40
2023-05-05T19:42:19.840Z,19.40
2023-05-05T19:44:48.051Z,19.40
2023-05-05T19:47:16.163Z,19.40
2023-05-05T19:49:46.122Z,19.40
2023-05-05T19:52:14.198Z,19.40
2023-05-05T19:54:43.545Z,19.30
2023-05-05T19:57:11.691Z,19.30
2023-05-05T19:59:39.797Z,19.20
2023-05-05T20:02:09.440Z,19.20
2023-05-05T20:04:37.580Z,19.20
2023-05-05T20:07:07.083Z,19.30
2023-05-05T20:09:36.063Z,19.30
2023-05-05T20:12:04.460Z,19.30
2023-05-05T20:14:32.560Z,19.30
2023-05-05T20:17:00.639Z,19.30
2023-05-05T20:19:28.728Z,19.30
2023-05-05T20:21:57.200Z,19.30
2023-05-05T20:24:28.587Z,19.30
2023-05-05T20:26:56.713Z,19.30
2023-05-05T20:29:24.790Z,19.30
2023-05-05T20:31:52.878Z,19.30
2023-05-05T20:34:24.098Z,19.30
2023-05-05T20:36:52.630Z,19.30
2023-05-05T20:39:21.317Z,19.30
2023-05-05T20:41:50.814Z,19.30
2023-05-05T20:44:18.892Z,19.30
2023-05-05T20:46:47.607Z,19.30
2023-05-05T20:49:15.725Z,19.30
2023-05-05T20:51:43.822Z,19.30
2023-05-05T20:54:11.878Z,19.30
2023-05-05T20:56:39.959Z,19.30
2023-05-05T20:59:09.446Z,19.30
2023-05-05T21:01:37.524Z,19.30
2023-05-05T21:04:06.087Z,19.30
2023-05-05T21:06:34.202Z,19.30
2023-05-05T21:09:02.305Z,19.30
2023-05-05T21:11:30.415Z,19.30
2023-05-05T21:13:58.470Z,19.30
2023-05-05T21:16:28.150Z,19.30
2023-05-05T21:18:56.386Z,19.30
2023-05-05T21:21:24.687Z,19.30
2023-05-05T21:23:55.163Z,19.20
2023-05-05T21:26:23.471Z,19.30
2023-05-05T21:28:51.568Z,19.30
2023-05-05T21:31:27.739Z,19.30
2023-05-05T21:33:57.216Z,19.30
2023-05-05T21:36:25.382Z,19.30
2023-05-05T21:38:55.512Z,19.30
2023-05-05T21:41:23.865Z,19.30
2023-05-05T21:43:51.875Z,19.30
2023-05-05T21:46:19.962Z,19.30
2023-05-05T21:48:48.167Z,19.30
2023-05-05T21:51:17.629Z,19.30
2023-05-05T21:53:46.238Z,19.20
2023-05-05T21:56:14.343Z,19.10
2023-05-05T21:58:42.459Z,19.10
2023-05-05T22:01:10.779Z,19.10
2023-05-05T22:03:38.950Z,19.10
2023-05-05T22:06:07.690Z,19.10
2023-05-05T22:08:37.163Z,19.10
2023-05-05T22:11:05.286Z,19.20
2023-05-05T22:13:33.414Z,19.20
2023-05-05T22:16:01.491Z,19.20
2023-05-05T22:18:29.563Z,19.20
2023-05-05T22:20:57.608Z,19.20
2023-05-05T22:23:25.678Z,19.20
2023-05-05T22:25:55.166Z,19.20
2023-05-05T22:28:23.255Z,19.20
2023-05-05T22:30:51.697Z,19.20
2023-05-05T22:33:19.856Z,19.20
2023-05-05T22:35:47.949Z,19.20
2023-05-05T22:38:16.059Z,19.30
2023-05-05T22:40:44.127Z,19.30
2023-05-05T22:43:13.580Z,19.30
2023-05-05T22:45:42.165Z,19.30
2023-05-05T22:48:10.438Z,19.30
2023-05-05T22:50:38.528Z,19.30
2023-05-05T22:53:07.753Z,19.20
2023-05-05T22:55:35.845Z,19.20
2023-05-05T22:58:03.944Z,19.20
2023-05-05T23:00:33.607Z,19.10
2023-05-05T23:03:01.761Z,19.20
2023-05-05T23:05:30.305Z,19.20
2023-05-05T23:08:01.232Z,19.20
2023-05-05T23:10:30.152Z,19.20
2023-05-05T23:12:58.292Z,19.20
2023-05-05T23:15:26.501Z,19.20
2023-05-05T23:17:56.152Z,19.20
2023-05-05T23:20:24.281Z,19.20
2023-05-05T23:22:52.417Z,19.20
2023-05-05T23:25:20.596Z,19.20
2023-05-05T23:27:48.973Z,19.10
2023-05-05T23:30:17.189Z,19.20
2023-05-05T23:32:46.005Z,19.20
2023-05-05T23:35:15.481Z,19.20
2023-05-05T23:37:43.615Z,19.20
2023-05-05T23:40:12.124Z,19.20
2023-05-05T23:42:40.340Z,19.20
2023-05-05T23:45:10.037Z,19.20
2023-05-05T23:47:38.408Z,19.20
2023-05-05T23:50:07.484Z,19.20
2023-05-05T23:52:36.952Z,19.10
2023-05-05T23:55:05.883Z,19.00
2023-05-05T23:57:34.155Z,19.00
